Angier, North Carolina
Current Conditions -  °F | °C
As of 2:15 PM on Friday 31 Oct 2014 (Local Time) from KHRJ Reporting Station
Scattered Clouds Scattered Clouds  
Wind Chill: 64°   Ceiling: Unl
Heat Index: 64°   Visibility: 10mi
Dew Point: 40°   Wind: 5mph
Humidity: 42%   Direction: 20°NNE
Pressure: 29.84"   Gusts: NA
Location:  35.51°N, 78.74°W
Report Text: KHRJ 311815Z AUTO 02004KT 10SM SCT045 18/04 A2984 RMK AO2 T01760044
Loading
Personal Weather Stations






























Interactive Weather Map
Tropical Storm Tracking
New forecast layout! Learn more

10-Day Weather Forecast

Advertisements
Track Severe Weather on mobile